createdAt,value
2018-04-10T00:00:56.162Z,0
2018-04-10T00:01:56.189Z,0
2018-04-10T00:02:56.201Z,0
2018-04-10T00:03:55.733Z,0
2018-04-10T00:04:56.250Z,0
2018-04-10T00:05:55.516Z,0
2018-04-10T00:06:55.940Z,0
2018-04-10T00:07:56.316Z,0
2018-04-10T00:08:55.835Z,0
2018-04-10T00:09:56.115Z,0
2018-04-10T00:10:56.388Z,0
2018-04-10T00:11:56.413Z,0
2018-04-10T00:12:56.182Z,0
2018-04-10T00:13:56.218Z,0
2018-04-10T00:14:56.494Z,0
2018-04-10T00:15:56.250Z,0
2018-04-10T00:16:56.269Z,0
2018-04-10T00:17:56.297Z,0
2018-04-10T00:18:56.325Z,0
2018-04-10T00:19:56.339Z,0
2018-04-10T00:20:56.358Z,0
2018-04-10T00:21:56.680Z,0
2018-04-10T00:22:56.659Z,0
2018-04-10T00:23:56.674Z,0
2018-04-10T00:24:56.189Z,0
2018-04-10T00:25:56.715Z,0
2018-04-10T00:26:56.497Z,0
2018-04-10T00:27:56.278Z,0
2018-04-10T00:28:56.786Z,0
2018-04-10T00:29:56.557Z,0
2018-04-10T00:30:56.580Z,0
2018-04-10T00:31:56.852Z,0
2018-04-10T00:32:56.379Z,0
2018-04-10T00:33:56.651Z,0
2018-04-10T00:34:56.940Z,0
2018-04-10T00:35:56.688Z,0
2018-04-10T00:36:56.761Z,0
2018-04-10T00:37:56.482Z,0
2018-04-10T00:38:57.012Z,0
2018-04-10T00:39:56.788Z,0
2018-04-10T00:40:57.052Z,0
2018-04-10T00:41:56.574Z,0
2018-04-10T00:42:57.096Z,0
2018-04-10T00:43:57.117Z,0
2018-04-10T00:44:56.892Z,0
2018-04-10T00:45:57.163Z,0
2018-04-10T00:46:56.941Z,0
2018-04-10T00:47:56.960Z,0
2018-04-10T00:48:56.990Z,0
2018-04-10T00:49:57.006Z,0
2018-04-10T00:50:57.286Z,0
2018-04-10T00:51:57.350Z,0
2018-04-10T00:52:57.085Z,0
2018-04-10T00:53:57.350Z,0
2018-04-10T00:54:57.380Z,0
2018-04-10T00:55:57.139Z,0
2018-04-10T00:56:57.414Z,0
2018-04-10T00:57:56.949Z,0
2018-04-10T00:58:56.951Z,0
2018-04-10T00:59:57.228Z,0
2018-04-10T01:00:57.501Z,0
2018-04-10T01:01:57.531Z,0
2018-04-10T01:02:57.053Z,0
2018-04-10T01:03:57.320Z,0
2018-04-10T01:04:57.601Z,0
2018-04-10T01:05:57.624Z,0
2018-04-10T01:06:57.689Z,0
2018-04-10T01:07:57.661Z,0
2018-04-10T01:08:57.178Z,0
2018-04-10T01:09:57.450Z,0
2018-04-10T01:10:57.218Z,0
2018-04-10T01:11:57.491Z,0
2018-04-10T01:12:57.773Z,0
2018-04-10T01:13:57.550Z,0
2018-04-10T01:14:57.562Z,0
2018-04-10T01:15:57.840Z,0
2018-04-10T01:16:57.857Z,0
2018-04-10T01:17:57.890Z,0
2018-04-10T01:18:57.416Z,0
2018-04-10T01:19:57.446Z,0
2018-04-10T01:20:57.702Z,0
2018-04-10T01:21:57.517Z,0
2018-04-10T01:22:57.743Z,0
2018-04-10T01:23:57.514Z,0
2018-04-10T01:24:58.043Z,0
2018-04-10T01:25:58.074Z,0
2018-04-10T01:26:57.830Z,0
2018-04-10T01:27:57.853Z,0
2018-04-10T01:28:58.132Z,0
2018-04-10T01:29:58.149Z,0
2018-04-10T01:30:57.931Z,0
2018-04-10T01:31:57.946Z,0
2018-04-10T01:32:57.961Z,0
2018-04-10T01:33:57.989Z,0
2018-04-10T01:34:58.304Z,0
2018-04-10T01:35:58.032Z,0
2018-04-10T01:36:58.101Z,0
2018-04-10T01:37:58.332Z,0
2018-04-10T01:38:58.105Z,0
2018-04-10T01:39:58.108Z,0
2018-04-10T01:40:58.134Z,0
2018-04-10T01:41:58.151Z,0
2018-04-10T01:42:58.187Z,0
2018-04-10T01:43:57.947Z,0
2018-04-10T01:44:58.221Z,0
2018-04-10T01:45:58.239Z,0
2018-04-10T01:46:58.267Z,0
2018-04-10T01:47:58.029Z,0
2018-04-10T01:48:58.572Z,0
2018-04-10T01:49:58.076Z,0
2018-04-10T01:50:58.615Z,0
2018-04-10T01:51:58.696Z,0
2018-04-10T01:52:58.663Z,0
2018-04-10T01:53:58.689Z,0
2018-04-10T01:54:58.449Z,0
2018-04-10T01:55:58.722Z,0
2018-04-10T01:56:57.989Z,0
2018-04-10T01:57:58.768Z,0
2018-04-10T01:58:58.536Z,0
2018-04-10T01:59:58.554Z,0
2018-04-10T02:00:58.831Z,0
2018-04-10T02:01:58.852Z,0
2018-04-10T02:02:58.874Z,0
2018-04-10T02:03:58.902Z,0
2018-04-10T02:04:58.681Z,0
2018-04-10T02:05:58.942Z,0
2018-04-10T02:06:58.758Z,0
2018-04-10T02:07:58.984Z,0
2018-04-10T02:08:59.006Z,0
2018-04-10T02:09:58.519Z,0
2018-04-10T02:10:58.540Z,0
2018-04-10T02:11:58.807Z,0
2018-04-10T02:12:59.066Z,0
2018-04-10T02:13:58.836Z,0
2018-04-10T02:14:58.867Z,0
2018-04-10T02:15:59.132Z,0
2018-04-10T02:16:58.903Z,0
2018-04-10T02:17:58.669Z,0
2018-04-10T02:18:59.198Z,0
2018-04-10T02:19:58.989Z,0
2018-04-10T02:20:59.007Z,0
2018-04-10T02:21:59.079Z,0
2018-04-10T02:22:59.046Z,0
2018-04-10T02:23:59.331Z,0
2018-04-10T02:24:59.361Z,0
2018-04-10T02:25:59.396Z,0
2018-04-10T02:26:59.390Z,0
2018-04-10T02:27:59.160Z,0
2018-04-10T02:28:59.183Z,0
2018-04-10T02:29:59.204Z,0
2018-04-10T02:30:59.482Z,0
2018-04-10T02:31:59.502Z,0
2018-04-10T02:32:59.264Z,0
2018-04-10T02:33:59.033Z,0
2018-04-10T02:34:59.078Z,0
2018-04-10T02:35:59.581Z,0
2018-04-10T02:36:59.400Z,0
2018-04-10T02:37:59.623Z,0
2018-04-10T02:38:59.647Z,0
2018-04-10T02:39:59.665Z,0
2018-04-10T02:40:59.685Z,0
2018-04-10T02:41:59.738Z,0
2018-04-10T02:42:59.741Z,0
2018-04-10T02:43:59.749Z,0
2018-04-10T02:44:59.777Z,0
2018-04-10T02:45:59.542Z,0
2018-04-10T02:46:59.816Z,0
2018-04-10T02:47:59.597Z,0
2018-04-10T02:48:59.868Z,0
2018-04-10T02:49:59.637Z,0
2018-04-10T02:50:59.647Z,0
2018-04-10T02:51:59.464Z,0
2018-04-10T02:52:59.460Z,0
2018-04-10T02:53:59.961Z,0
2018-04-10T02:54:59.225Z,0
2018-04-10T02:56:00.010Z,0
2018-04-10T02:56:59.521Z,0
2018-04-10T02:57:59.795Z,0
2018-04-10T02:59:00.071Z,0
2018-04-10T03:00:00.087Z,0
2018-04-10T03:00:59.861Z,0
2018-04-10T03:01:59.887Z,0
2018-04-10T03:03:00.164Z,0
2018-04-10T03:03:59.937Z,0
2018-04-10T03:04:59.940Z,0
2018-04-10T03:06:00.240Z,0
2018-04-10T03:07:00.224Z,0
2018-04-10T03:08:00.229Z,0
2018-04-10T03:08:59.755Z,0
2018-04-10T03:09:59.776Z,0
2018-04-10T03:10:59.795Z,0
2018-04-10T03:11:59.821Z,0
2018-04-10T03:13:00.338Z,0
2018-04-10T03:14:00.360Z,0
2018-04-10T03:15:00.383Z,0
2018-04-10T03:16:00.404Z,0
2018-04-10T03:17:00.183Z,0
2018-04-10T03:17:59.961Z,0
2018-04-10T03:19:00.517Z,0
2018-04-10T03:20:00.516Z,0
2018-04-10T03:21:00.277Z,0
2018-04-10T03:22:00.299Z,0
2018-04-10T03:23:00.072Z,0
2018-04-10T03:24:00.411Z,0
2018-04-10T03:25:00.615Z,0
2018-04-10T03:26:00.134Z,0
2018-04-10T03:27:00.151Z,0
2018-04-10T03:28:00.423Z,0
2018-04-10T03:29:00.443Z,0
2018-04-10T03:30:00.721Z,0
2018-04-10T03:31:00.241Z,0
2018-04-10T03:32:00.504Z,0
2018-04-10T03:33:00.779Z,0
2018-04-10T03:34:00.798Z,0
2018-04-10T03:35:00.844Z,0
2018-04-10T03:36:00.624Z,0
2018-04-10T03:37:00.109Z,0
2018-04-10T03:38:00.883Z,0
2018-04-10T03:39:00.904Z,0
2018-04-10T03:40:00.977Z,0
2018-04-10T03:41:00.949Z,0
2018-04-10T03:42:00.718Z,0
2018-04-10T03:43:00.481Z,0
2018-04-10T03:44:00.753Z,0
2018-04-10T03:45:00.780Z,0
2018-04-10T03:46:01.059Z,0
2018-04-10T03:47:01.073Z,0
2018-04-10T03:48:01.229Z,0
2018-04-10T03:49:00.880Z,0
2018-04-10T03:50:00.885Z,0
2018-04-10T03:51:01.165Z,0
2018-04-10T03:52:01.175Z,0
2018-04-10T03:53:01.217Z,4
2018-04-10T03:54:00.972Z,0
2018-04-10T03:55:00.899Z,4
2018-04-10T03:56:00.757Z,4
2018-04-10T03:57:01.285Z,4
2018-04-10T03:58:01.056Z,4
2018-04-10T03:59:00.817Z,4
2018-04-10T04:00:01.350Z,4
2018-04-10T04:01:00.853Z,4
2018-04-10T04:02:00.876Z,4
2018-04-10T04:03:01.148Z,4
2018-04-10T04:04:01.433Z,4
2018-04-10T04:05:01.444Z,4
2018-04-10T04:06:01.214Z,4
2018-04-10T04:07:01.229Z,4
2018-04-10T04:08:01.256Z,4
2018-04-10T04:09:01.696Z,4
2018-04-10T04:10:01.348Z,8
2018-04-10T04:11:01.312Z,4
2018-04-10T04:12:01.596Z,8
2018-04-10T04:13:01.626Z,4
2018-04-10T04:14:01.633Z,8
2018-04-10T04:15:01.392Z,8
2018-04-10T04:16:01.210Z,12
2018-04-10T04:17:01.437Z,12
2018-04-10T04:18:01.709Z,16
2018-04-10T04:19:01.732Z,16
2018-04-10T04:20:01.758Z,20
2018-04-10T04:21:01.522Z,24
2018-04-10T04:22:01.813Z,28
2018-04-10T04:23:01.544Z,32
2018-04-10T04:24:01.316Z,36
2018-04-10T04:25:01.635Z,40
2018-04-10T04:26:01.903Z,48
2018-04-10T04:27:01.883Z,52
2018-04-10T04:28:01.681Z,64
2018-04-10T04:29:01.670Z,72
2018-04-10T04:30:01.784Z,80
2018-04-10T04:31:01.469Z,92
2018-04-10T04:32:01.747Z,108
2018-04-10T04:33:02.022Z,116
2018-04-10T04:34:01.532Z,132
2018-04-10T04:35:01.851Z,144
2018-04-10T04:36:01.809Z,160
2018-04-10T04:37:02.091Z,176
2018-04-10T04:38:02.102Z,200
2018-04-10T04:39:01.623Z,216
2018-04-10T04:40:02.009Z,240
2018-04-10T04:41:02.164Z,264
2018-04-10T04:42:01.938Z,288
2018-04-10T04:43:01.958Z,312
2018-04-10T04:44:02.230Z,336
2018-04-10T04:45:02.256Z,368
2018-04-10T04:46:01.777Z,400
2018-04-10T04:47:02.047Z,428
2018-04-10T04:48:02.321Z,464
2018-04-10T04:49:02.369Z,496
2018-04-10T04:50:02.113Z,532
2018-04-10T04:51:02.437Z,568
2018-04-10T04:52:02.155Z,604
2018-04-10T04:53:02.438Z,640
2018-04-10T04:54:02.442Z,680
2018-04-10T04:55:02.466Z,724
2018-04-10T04:56:02.491Z,764
2018-04-10T04:57:02.505Z,804
2018-04-10T04:58:02.532Z,848
2018-04-10T04:59:02.292Z,888
2018-04-10T05:00:02.565Z,936
2018-04-10T05:01:02.336Z,984
2018-04-10T05:02:02.619Z,1028
2018-04-10T05:03:02.626Z,1072
2018-04-10T05:04:02.398Z,1116
2018-04-10T05:05:02.672Z,1164
2018-04-10T05:06:02.740Z,1208
2018-04-10T05:07:02.472Z,1256
2018-04-10T05:08:02.222Z,1300
2018-04-10T05:09:02.747Z,1348
2018-04-10T05:10:02.790Z,1388
2018-04-10T05:11:02.527Z,1428
2018-04-10T05:12:02.796Z,1468
2018-04-10T05:13:02.570Z,1512
2018-04-10T05:14:02.585Z,1552
2018-04-10T05:15:02.611Z,1588
2018-04-10T05:16:02.629Z,1632
2018-04-10T05:17:02.900Z,1676
2018-04-10T05:18:02.671Z,1716
2018-04-10T05:19:02.436Z,1760
2018-04-10T05:20:02.733Z,1804
2018-04-10T05:21:02.805Z,1844
2018-04-10T05:22:03.009Z,1888
2018-04-10T05:23:02.854Z,1932
2018-04-10T05:24:03.062Z,1976
2018-04-10T05:25:02.857Z,2024
2018-04-10T05:26:03.114Z,2072
2018-04-10T05:27:02.875Z,2120
2018-04-10T05:28:02.896Z,2168
2018-04-10T05:29:02.911Z,2212
2018-04-10T05:30:03.001Z,2260
2018-04-10T05:31:03.006Z,2312
2018-04-10T05:32:02.971Z,2360
2018-04-10T05:33:03.000Z,2420
2018-04-10T05:34:03.271Z,2476
2018-04-10T05:35:03.297Z,2536
2018-04-10T05:36:03.313Z,2596
2018-04-10T05:37:03.086Z,2656
2018-04-10T05:38:03.098Z,2716
2018-04-10T05:39:03.115Z,2780
2018-04-10T05:40:03.149Z,2840
2018-04-10T05:41:03.179Z,2900
2018-04-10T05:42:03.446Z,2964
2018-04-10T05:43:03.208Z,3020
2018-04-10T05:44:03.476Z,3080
2018-04-10T05:45:03.520Z,3144
2018-04-10T05:46:02.817Z,3204
2018-04-10T05:47:03.610Z,3268
2018-04-10T05:48:03.065Z,3332
2018-04-10T05:49:03.373Z,3396
2018-04-10T05:50:03.608Z,3456
2018-04-10T05:51:03.124Z,3524
2018-04-10T05:52:03.397Z,3584
2018-04-10T05:53:03.452Z,3640
2018-04-10T05:54:03.699Z,3688
2018-04-10T05:55:03.731Z,3752
2018-04-10T05:56:03.484Z,3824
2018-04-10T05:57:03.752Z,3872
2018-04-10T05:58:03.280Z,3900
2018-04-10T05:59:03.793Z,3940
2018-04-10T06:00:03.313Z,3984
2018-04-10T06:01:03.381Z,4016
2018-04-10T06:02:03.856Z,4056
2018-04-10T06:03:03.635Z,4092
2018-04-10T06:04:04.024Z,4168
2018-04-10T06:05:03.416Z,4232
2018-04-10T06:06:03.945Z,4292
2018-04-10T06:07:03.967Z,4320
2018-04-10T06:08:03.742Z,4324
2018-04-10T06:09:04.017Z,4380
2018-04-10T06:10:03.792Z,4472
2018-04-10T06:11:03.302Z,4536
2018-04-10T06:12:03.577Z,4600
2018-04-10T06:13:03.598Z,4712
2018-04-10T06:14:03.875Z,4764
2018-04-10T06:15:03.892Z,4816
2018-04-10T06:16:04.205Z,4876
2018-04-10T06:17:03.941Z,4972
2018-04-10T06:18:04.005Z,5024
2018-04-10T06:19:03.730Z,5112
2018-04-10T06:20:04.000Z,5180
2018-04-10T06:21:04.032Z,5236
2018-04-10T06:22:03.793Z,5320
2018-04-10T06:23:04.229Z,5344
2018-04-10T06:24:03.840Z,5380
2018-04-10T06:25:04.368Z,5468
2018-04-10T06:26:04.402Z,5560
2018-04-10T06:27:03.965Z,5672
2018-04-10T06:28:04.433Z,5836
2018-04-10T06:29:04.457Z,5920
2018-04-10T06:30:04.477Z,6008
2018-04-10T06:31:04.252Z,6064
2018-04-10T06:32:04.012Z,6120
2018-04-10T06:33:04.593Z,6192
2018-04-10T06:34:04.286Z,6300
2018-04-10T06:35:04.067Z,6448
2018-04-10T06:36:04.332Z,6560
2018-04-10T06:37:04.607Z,6612
2018-04-10T06:38:04.148Z,6772
2018-04-10T06:39:04.682Z,6932
2018-04-10T06:40:04.197Z,6964
2018-04-10T06:41:04.718Z,7024
2018-04-10T06:42:04.746Z,7192
2018-04-10T06:43:04.761Z,7468
2018-04-10T06:44:04.532Z,7716
2018-04-10T06:45:04.816Z,7896
2018-04-10T06:46:04.837Z,7984
2018-04-10T06:47:04.850Z,8064
2018-04-10T06:48:04.924Z,8152
2018-04-10T06:49:04.894Z,8232
2018-04-10T06:50:04.692Z,8344
2018-04-10T06:51:04.944Z,8412
2018-04-10T06:52:04.707Z,8404
2018-04-10T06:53:04.824Z,8384
2018-04-10T06:54:04.758Z,8372
2018-04-10T06:55:04.787Z,8588
2018-04-10T06:56:04.799Z,8580
2018-04-10T06:57:05.077Z,8400
2018-04-10T06:58:05.099Z,8292
2018-04-10T06:59:05.124Z,8336
2018-04-10T07:00:04.891Z,8336
2018-04-10T07:01:05.172Z,8124
2018-04-10T07:02:04.935Z,7804
2018-04-10T07:03:05.006Z,7760
2018-04-10T07:04:04.980Z,7860
2018-04-10T07:05:05.266Z,7944
2018-04-10T07:06:05.277Z,7844
2018-04-10T07:07:04.539Z,7776
2018-04-10T07:08:05.120Z,7716
2018-04-10T07:09:05.139Z,7572
2018-04-10T07:10:05.119Z,7400
2018-04-10T07:11:05.143Z,7324
2018-04-10T07:12:05.409Z,7324
2018-04-10T07:13:05.195Z,7348
2018-04-10T07:14:05.463Z,7440
2018-04-10T07:15:05.232Z,7516
2018-04-10T07:16:05.541Z,7560
2018-04-10T07:17:05.531Z,7540
2018-04-10T07:18:05.601Z,7452
2018-04-10T07:19:05.315Z,7432
2018-04-10T07:20:05.353Z,7348
2018-04-10T07:21:05.444Z,7300
2018-04-10T07:22:05.380Z,7372
2018-04-10T07:23:05.398Z,7352
2018-04-10T07:24:05.169Z,7320
2018-04-10T07:25:05.469Z,7292
2018-04-10T07:26:05.744Z,7300
2018-04-10T07:27:05.489Z,7368
2018-04-10T07:28:05.511Z,7400
2018-04-10T07:29:05.534Z,7384
2018-04-10T07:30:05.807Z,7372
2018-04-10T07:31:05.592Z,7304
2018-04-10T07:32:05.850Z,7248
2018-04-10T07:33:05.192Z,7276
2018-04-10T07:34:06.026Z,7304
2018-04-10T07:35:05.682Z,7380
2018-04-10T07:36:05.976Z,7416
2018-04-10T07:37:05.494Z,7440
2018-04-10T07:38:06.169Z,7464
2018-04-10T07:39:05.774Z,7472
2018-04-10T07:40:05.798Z,7492
2018-04-10T07:41:05.956Z,7516
2018-04-10T07:42:05.599Z,7536
2018-04-10T07:43:05.969Z,7544
2018-04-10T07:44:05.909Z,7576
2018-04-10T07:45:05.905Z,7640
2018-04-10T07:46:06.260Z,7668
2018-04-10T07:47:06.206Z,7688
2018-04-10T07:48:06.232Z,7724
2018-04-10T07:49:05.750Z,7760
2018-04-10T07:50:05.771Z,7844
2018-04-10T07:51:05.799Z,7912
2018-04-10T07:52:06.338Z,7952
2018-04-10T07:53:06.157Z,8000
2018-04-10T07:54:06.382Z,8016
2018-04-10T07:55:06.413Z,8048
2018-04-10T07:56:06.199Z,8096
2018-04-10T07:57:06.205Z,8136
2018-04-10T07:58:06.484Z,8160
2018-04-10T07:59:06.247Z,8164
2018-04-10T08:00:06.537Z,8160
2018-04-10T08:01:06.295Z,8208
2018-04-10T08:02:06.319Z,8244
2018-04-10T08:03:06.645Z,8284
2018-04-10T08:04:06.619Z,8340
2018-04-10T08:05:06.395Z,8384
2018-04-10T08:06:06.416Z,8456
2018-04-10T08:07:06.189Z,8508
2018-04-10T08:08:06.256Z,8560
2018-04-10T08:09:06.498Z,8612
2018-04-10T08:10:06.760Z,8664
2018-04-10T08:11:06.537Z,8748
2018-04-10T08:12:06.561Z,8824
2018-04-10T08:13:06.589Z,8908
2018-04-10T08:14:06.352Z,8980
2018-04-10T08:15:06.635Z,9072
2018-04-10T08:16:06.653Z,9140
2018-04-10T08:17:06.683Z,9204
2018-04-10T08:18:06.451Z,9280
2018-04-10T08:19:06.522Z,9388
2018-04-10T08:20:06.493Z,9456
2018-04-10T08:21:07.020Z,9492
2018-04-10T08:22:06.294Z,9540
2018-04-10T08:23:06.863Z,9600
2018-04-10T08:24:07.100Z,9640
2018-04-10T08:25:06.363Z,9672
2018-04-10T08:26:06.646Z,9700
2018-04-10T08:27:06.919Z,9752
2018-04-10T08:28:07.194Z,9772
2018-04-10T08:29:07.219Z,9800
2018-04-10T08:30:07.244Z,9800
2018-04-10T08:31:06.756Z,9832
2018-04-10T08:32:06.785Z,9848
2018-04-10T08:33:07.064Z,9852
2018-04-10T08:34:07.237Z,9856
2018-04-10T08:35:07.137Z,9852
2018-04-10T08:36:07.400Z,9848
2018-04-10T08:37:07.412Z,9844
2018-04-10T08:38:07.192Z,9848
2018-04-10T08:39:07.455Z,9844
2018-04-10T08:40:07.236Z,9844
2018-04-10T08:41:07.514Z,9848
2018-04-10T08:42:07.540Z,9848
2018-04-10T08:43:07.560Z,9840
2018-04-10T08:44:07.594Z,9840
2018-04-10T08:45:07.460Z,9836
2018-04-10T08:46:07.634Z,9836
2018-04-10T08:47:07.657Z,9844
2018-04-10T08:48:07.435Z,9860
2018-04-10T08:49:07.757Z,9868
2018-04-10T08:50:07.485Z,9876
2018-04-10T08:51:07.501Z,9888
2018-04-10T08:52:07.781Z,9892
2018-04-10T08:53:07.805Z,9900
2018-04-10T08:54:07.833Z,9904
2018-04-10T08:55:07.857Z,9900
2018-04-10T08:56:07.376Z,9920
2018-04-10T08:57:07.895Z,9928
2018-04-10T08:58:07.922Z,9932
2018-04-10T08:59:07.944Z,9952
2018-04-10T09:00:07.970Z,9960
2018-04-10T09:01:07.750Z,9964
2018-04-10T09:02:08.100Z,9960
2018-04-10T09:03:08.051Z,9944
2018-04-10T09:04:08.126Z,9924
2018-04-10T09:05:07.846Z,9900
2018-04-10T09:06:07.873Z,9884
2018-04-10T09:07:07.895Z,9872
2018-04-10T09:08:08.178Z,9864
2018-04-10T09:09:07.950Z,9852
2018-04-10T09:10:07.724Z,9852
2018-04-10T09:11:08.250Z,9852
2018-04-10T09:12:07.775Z,9860
2018-04-10T09:13:08.315Z,9884
2018-04-10T09:14:08.079Z,9912
2018-04-10T09:15:07.848Z,9932
2018-04-10T09:16:08.133Z,9968
2018-04-10T09:17:08.423Z,9992
2018-04-10T09:18:08.435Z,9976
2018-04-10T09:19:08.502Z,9940
2018-04-10T09:20:08.238Z,9904
2018-04-10T09:21:07.995Z,9896
2018-04-10T09:22:08.289Z,9884
2018-04-10T09:23:08.296Z,9872
2018-04-10T09:24:08.078Z,9884
2018-04-10T09:25:08.096Z,9908
2018-04-10T09:26:08.637Z,9932
2018-04-10T09:27:08.403Z,9924
2018-04-10T09:28:08.172Z,9880
2018-04-10T09:29:08.227Z,9876
2018-04-10T09:30:08.480Z,9928
2018-04-10T09:31:08.519Z,10020
2018-04-10T09:32:08.286Z,10108
2018-04-10T09:33:08.854Z,10180
2018-04-10T09:34:08.378Z,10228
2018-04-10T09:35:08.361Z,10276
2018-04-10T09:36:08.378Z,10344
2018-04-10T09:37:08.656Z,10412
2018-04-10T09:38:08.685Z,10420
2018-04-10T09:39:08.760Z,10400
2018-04-10T09:40:08.732Z,10324
2018-04-10T09:41:08.759Z,10188
2018-04-10T09:42:08.789Z,10060
2018-04-10T09:43:08.819Z,9968
2018-04-10T09:44:08.826Z,9884
2018-04-10T09:45:08.601Z,9744
2018-04-10T09:46:08.881Z,9560
2018-04-10T09:47:09.154Z,9384
2018-04-10T09:48:09.196Z,9228
2018-04-10T09:49:08.503Z,9092
2018-04-10T09:50:09.016Z,8964
2018-04-10T09:51:09.251Z,8880
2018-04-10T09:52:08.778Z,8856
2018-04-10T09:53:08.545Z,8892
2018-04-10T09:54:09.420Z,8936
2018-04-10T09:55:09.111Z,8968
2018-04-10T09:56:08.632Z,9008
2018-04-10T09:57:09.147Z,9040
2018-04-10T09:58:09.176Z,9032
2018-04-10T09:59:09.466Z,8992
2018-04-10T10:00:09.267Z,8936
2018-04-10T10:01:09.012Z,8896
2018-04-10T10:02:09.037Z,8856
2018-04-10T10:03:09.327Z,8772
2018-04-10T10:04:09.647Z,8584
2018-04-10T10:05:09.392Z,8440
2018-04-10T10:06:09.395Z,8292
2018-04-10T10:07:09.420Z,8240
2018-04-10T10:08:09.480Z,8232
2018-04-10T10:09:09.371Z,8268
2018-04-10T10:10:09.512Z,8328
2018-04-10T10:11:09.780Z,8404
2018-04-10T10:12:09.562Z,8452
2018-04-10T10:13:09.827Z,8472
2018-04-10T10:14:09.345Z,8452
2018-04-10T10:15:09.897Z,8420
2018-04-10T10:16:09.914Z,8420
2018-04-10T10:17:09.939Z,8440
2018-04-10T10:18:09.697Z,8468
2018-04-10T10:19:09.727Z,8560
2018-04-10T10:20:09.497Z,8680
2018-04-10T10:21:10.027Z,8864
2018-04-10T10:22:10.054Z,9084
2018-04-10T10:23:09.825Z,9324
2018-04-10T10:24:10.190Z,9544
2018-04-10T10:25:09.878Z,9728
2018-04-10T10:26:09.975Z,9860
2018-04-10T10:27:09.931Z,9924
2018-04-10T10:28:09.716Z,9964
2018-04-10T10:29:09.983Z,10032
2018-04-10T10:30:10.015Z,10136
2018-04-10T10:31:10.035Z,10260
2018-04-10T10:32:10.295Z,10436
2018-04-10T10:33:10.391Z,10680
2018-04-10T10:34:10.095Z,10948
2018-04-10T10:35:10.379Z,11260
2018-04-10T10:36:10.403Z,11580
2018-04-10T10:37:10.195Z,12004
2018-04-10T10:38:10.195Z,12492
2018-04-10T10:39:10.292Z,12980
2018-04-10T10:40:10.302Z,13476
2018-04-10T10:41:10.050Z,13948
2018-04-10T10:42:10.320Z,14392
2018-04-10T10:43:10.607Z,14736
2018-04-10T10:44:10.374Z,15092
2018-04-10T10:45:10.650Z,15380
2018-04-10T10:46:10.673Z,15640
2018-04-10T10:47:10.546Z,15136
2018-04-10T10:48:10.223Z,15212
2018-04-10T10:49:10.754Z,15388
2018-04-10T10:50:10.788Z,15668
2018-04-10T10:51:10.559Z,16128
2018-04-10T10:52:10.591Z,17056
2018-04-10T10:53:10.617Z,18880
2018-04-10T10:54:10.892Z,17376
2018-04-10T10:55:10.712Z,16608
2018-04-10T10:56:10.914Z,16608
2018-04-10T10:57:10.686Z,16704
2018-04-10T10:58:11.090Z,17120
2018-04-10T10:59:10.744Z,17792
2018-04-10T11:00:10.619Z,18752
2018-04-10T11:01:10.600Z,21568
2018-04-10T11:02:11.077Z,19776
2018-04-10T11:03:11.119Z,19520
2018-04-10T11:04:10.884Z,20224
2018-04-10T11:05:10.927Z,19264
2018-04-10T11:06:11.184Z,20480
2018-04-10T11:07:10.970Z,19840
2018-04-10T11:08:10.747Z,21216
2018-04-10T11:09:10.533Z,21536
2018-04-10T11:10:11.068Z,21536
2018-04-10T11:11:11.163Z,21792
2018-04-10T11:12:11.118Z,21856
2018-04-10T11:13:10.892Z,21984
2018-04-10T11:14:11.176Z,22048
2018-04-10T11:15:11.203Z,21984
2018-04-10T11:16:11.485Z,21568
2018-04-10T11:17:11.259Z,21376
2018-04-10T11:18:11.038Z,21792
2018-04-10T11:19:11.568Z,21632
2018-04-10T11:20:11.403Z,21504
2018-04-10T11:21:10.896Z,21408
2018-04-10T11:22:11.671Z,21376
2018-04-10T11:23:11.445Z,20736
2018-04-10T11:24:11.726Z,20960
2018-04-10T11:25:11.502Z,21888
2018-04-10T11:26:11.586Z,22240
2018-04-10T11:27:11.310Z,22272
2018-04-10T11:28:11.587Z,21888
2018-04-10T11:29:11.374Z,21568
2018-04-10T11:30:11.900Z,22176
2018-04-10T11:31:11.426Z,22720
2018-04-10T11:32:11.725Z,22688
2018-04-10T11:33:11.991Z,22336
2018-04-10T11:34:12.016Z,21792
2018-04-10T11:35:11.544Z,21568
2018-04-10T11:36:12.078Z,22080
2018-04-10T11:37:12.111Z,23008
2018-04-10T11:38:11.885Z,23200
2018-04-10T11:39:11.735Z,22688
2018-04-10T11:40:11.688Z,24064
2018-04-10T11:41:12.275Z,23552
2018-04-10T11:42:12.272Z,23072
2018-04-10T11:43:12.040Z,22272
2018-04-10T11:44:12.061Z,22464
2018-04-10T11:45:12.350Z,22400
2018-04-10T11:46:12.119Z,23104
2018-04-10T11:47:11.899Z,23456
2018-04-10T11:48:11.922Z,24000
2018-04-10T11:49:12.460Z,23744
2018-04-10T11:50:12.494Z,22400
2018-04-10T11:51:12.267Z,21568
2018-04-10T11:52:12.315Z,22176
2018-04-10T11:53:12.576Z,23104
2018-04-10T11:54:12.357Z,22848
2018-04-10T11:55:12.389Z,22624
2018-04-10T11:56:11.961Z,22560
2018-04-10T11:57:11.937Z,22208
2018-04-10T11:58:12.722Z,21824
2018-04-10T11:59:12.501Z,21952
2018-04-10T12:00:12.856Z,21856
2018-04-10T12:01:12.571Z,22112
2018-04-10T12:02:12.904Z,21120
2018-04-10T12:03:12.618Z,20544
2018-04-10T12:04:12.395Z,22400
2018-04-10T12:05:12.927Z,22272
2018-04-10T12:06:12.970Z,23008
2018-04-10T12:07:12.482Z,23072
2018-04-10T12:08:12.871Z,22304
2018-04-10T12:09:12.543Z,21600
2018-04-10T12:10:12.824Z,22528
2018-04-10T12:11:12.661Z,23456
2018-04-10T12:12:12.885Z,23616
2018-04-10T12:13:12.411Z,24256
2018-04-10T12:14:12.943Z,25280
2018-04-10T12:15:12.469Z,25952
2018-04-10T12:16:13.354Z,26560
2018-04-10T12:17:13.294Z,25536
2018-04-10T12:18:12.827Z,24544
2018-04-10T12:19:13.077Z,24448
2018-04-10T12:20:13.362Z,26048
2018-04-10T12:21:13.135Z,24768
2018-04-10T12:22:12.934Z,25760
2018-04-10T12:23:13.481Z,25472
2018-04-10T12:24:13.240Z,25952
2018-04-10T12:25:13.279Z,26944
2018-04-10T12:26:12.857Z,27840
2018-04-10T12:27:13.346Z,27520
2018-04-10T12:28:13.362Z,26752
2018-04-10T12:29:13.397Z,25536
2018-04-10T12:30:13.191Z,25408
2018-04-10T12:31:13.722Z,25376
2018-04-10T12:32:13.485Z,27424
2018-04-10T12:33:13.767Z,29408
2018-04-10T12:34:13.797Z,31744
2018-04-10T12:35:13.327Z,34720
2018-04-10T12:36:13.356Z,34496
2018-04-10T12:37:13.637Z,34848
2018-04-10T12:38:13.415Z,34912
2018-04-10T12:39:13.699Z,33088
2018-04-10T12:40:13.984Z,33440
2018-04-10T12:41:13.771Z,32160
2018-04-10T12:42:14.072Z,33632
2018-04-10T12:43:13.892Z,34752
2018-04-10T12:44:14.103Z,38080
2018-04-10T12:45:14.129Z,37312
2018-04-10T12:46:13.661Z,37984
2018-04-10T12:47:13.944Z,40896
2018-04-10T12:48:13.975Z,40096
2018-04-10T12:49:14.052Z,42208
2018-04-10T12:50:14.283Z,43584
2018-04-10T12:51:13.555Z,46400
2018-04-10T12:52:14.093Z,45472
2018-04-10T12:53:13.873Z,47680
2018-04-10T12:54:14.405Z,48800
2018-04-10T12:55:14.191Z,50400
2018-04-10T12:56:14.472Z,49472
2018-04-10T12:57:14.557Z,55872
2018-04-10T12:58:14.287Z,55776
2018-04-10T12:59:14.321Z,53568
2018-04-10T13:00:14.349Z,58752
2018-04-10T13:01:14.128Z,62112
2018-04-10T13:02:14.492Z,58816
2018-04-10T13:03:14.444Z,58304
2018-04-10T13:04:14.481Z,55264
2018-04-10T13:05:14.255Z,47744
2018-04-10T13:06:14.037Z,48480
2018-04-10T13:07:14.584Z,49664
2018-04-10T13:08:14.880Z,54912
2018-04-10T13:09:14.896Z,51744
2018-04-10T13:10:14.677Z,54432
2018-04-10T13:11:14.452Z,53248
2018-04-10T13:12:14.993Z,56512
2018-04-10T13:13:15.040Z,60608
2018-04-10T13:14:14.813Z,61440
2018-04-10T13:15:15.150Z,59424
2018-04-10T13:16:15.124Z,45056
2018-04-10T13:17:14.959Z,45728
2018-04-10T13:18:15.200Z,40608
2018-04-10T13:19:15.092Z,38880
2018-04-10T13:20:15.010Z,41024
2018-04-10T13:21:14.790Z,46048
2018-04-10T13:22:15.227Z,46528
2018-04-10T13:23:15.153Z,52480
2018-04-10T13:24:15.402Z,51968
2018-04-10T13:25:14.923Z,52672
2018-04-10T13:26:15.199Z,63616
2018-04-10T13:27:15.657Z,63232
2018-04-10T13:28:15.268Z,49728
2018-04-10T13:29:15.301Z,51776
2018-04-10T13:30:15.340Z,59808
2018-04-10T13:31:15.398Z,59008
2018-04-10T13:32:15.403Z,57312
2018-04-10T13:33:15.436Z,59776
2018-04-10T13:34:15.471Z,58848
2018-04-10T13:35:15.503Z,56320
2018-04-10T13:36:15.551Z,58496
2018-04-10T13:37:15.892Z,59296
2018-04-10T13:38:15.622Z,53024
2018-04-10T13:39:15.406Z,54272
2018-04-10T13:40:15.949Z,52416